sensor_id;sensor_type;location;lat;lon;timestamp;P1;durP1;ratioP1;P2;durP2;ratioP2
41661;SDS011;27351;45.992;12.666;2022-12-18T00:00:29;9.57;;;5.40;;
41661;SDS011;27351;45.992;12.666;2022-12-18T00:02:55;9.20;;;5.27;;
41661;SDS011;27351;45.992;12.666;2022-12-18T00:05:20;9.07;;;5.50;;
41661;SDS011;27351;45.992;12.666;2022-12-18T00:07:46;8.40;;;5.00;;
41661;SDS011;27351;45.992;12.666;2022-12-18T00:10:12;8.83;;;5.40;;
41661;SDS011;27351;45.992;12.666;2022-12-18T00:12:37;9.10;;;5.17;;
41661;SDS011;27351;45.992;12.666;2022-12-18T00:15:03;8.63;;;4.75;;
41661;SDS011;27351;45.992;12.666;2022-12-18T00:17:29;8.85;;;5.50;;
41661;SDS011;27351;45.992;12.666;2022-12-18T00:19:54;8.30;;;4.72;;
41661;SDS011;27351;45.992;12.666;2022-12-18T00:22:20;8.05;;;4.63;;
41661;SDS011;27351;45.992;12.666;2022-12-18T00:24:45;8.82;;;5.03;;
41661;SDS011;27351;45.992;12.666;2022-12-18T00:27:11;8.57;;;4.63;;
41661;SDS011;27351;45.992;12.666;2022-12-18T00:29:39;8.93;;;5.00;;
41661;SDS011;27351;45.992;12.666;2022-12-18T00:32:05;7.95;;;4.38;;
41661;SDS011;27351;45.992;12.666;2022-12-18T00:34:31;8.15;;;4.75;;
41661;SDS011;27351;45.992;12.666;2022-12-18T00:36:56;8.20;;;4.97;;
41661;SDS011;27351;45.992;12.666;2022-12-18T00:39:22;9.50;;;4.68;;
41661;SDS011;27351;45.992;12.666;2022-12-18T00:41:47;8.90;;;4.93;;
41661;SDS011;27351;45.992;12.666;2022-12-18T00:44:31;8.50;;;5.05;;
41661;SDS011;27351;45.992;12.666;2022-12-18T00:46:57;7.87;;;4.87;;
41661;SDS011;27351;45.992;12.666;2022-12-18T00:49:22;7.90;;;4.70;;
41661;SDS011;27351;45.992;12.666;2022-12-18T00:51:48;9.40;;;5.27;;
41661;SDS011;27351;45.992;12.666;2022-12-18T00:54:15;9.40;;;5.38;;
41661;SDS011;27351;45.992;12.666;2022-12-18T00:56:41;8.50;;;4.75;;
41661;SDS011;27351;45.992;12.666;2022-12-18T00:59:07;7.82;;;5.00;;
41661;SDS011;27351;45.992;12.666;2022-12-18T01:01:32;8.70;;;4.97;;
41661;SDS011;27351;45.992;12.666;2022-12-18T01:03:59;7.65;;;4.50;;
41661;SDS011;27351;45.992;12.666;2022-12-18T01:06:25;9.05;;;4.75;;
41661;SDS011;27351;45.992;12.666;2022-12-18T01:08:51;9.37;;;5.33;;
41661;SDS011;27351;45.992;12.666;2022-12-18T01:11:17;9.23;;;5.57;;
41661;SDS011;27351;45.992;12.666;2022-12-18T01:13:44;8.50;;;5.00;;
41661;SDS011;27351;45.992;12.666;2022-12-18T01:16:13;8.35;;;5.00;;
41661;SDS011;27351;45.992;12.666;2022-12-18T01:18:39;8.77;;;4.78;;
41661;SDS011;27351;45.992;12.666;2022-12-18T01:21:08;8.13;;;4.47;;
41661;SDS011;27351;45.992;12.666;2022-12-18T01:23:36;8.48;;;4.90;;
41661;SDS011;27351;45.992;12.666;2022-12-18T01:26:06;8.50;;;4.70;;
41661;SDS011;27351;45.992;12.666;2022-12-18T01:28:34;8.82;;;4.95;;
41661;SDS011;27351;45.992;12.666;2022-12-18T01:33:35;8.50;;;4.87;;
41661;SDS011;27351;45.992;12.666;2022-12-18T01:36:01;7.88;;;4.78;;
41661;SDS011;27351;45.992;12.666;2022-12-18T01:38:28;7.88;;;4.25;;
41661;SDS011;27351;45.992;12.666;2022-12-18T01:40:57;9.30;;;5.25;;
41661;SDS011;27351;45.992;12.666;2022-12-18T01:43:39;8.75;;;4.90;;
41661;SDS011;27351;45.992;12.666;2022-12-18T01:46:05;8.13;;;4.68;;
41661;SDS011;27351;45.992;12.666;2022-12-18T01:48:31;8.65;;;5.05;;
41661;SDS011;27351;45.992;12.666;2022-12-18T01:50:56;9.23;;;5.13;;
41661;SDS011;27351;45.992;12.666;2022-12-18T01:53:22;9.00;;;5.03;;
41661;SDS011;27351;45.992;12.666;2022-12-18T01:55:50;7.97;;;4.60;;
41661;SDS011;27351;45.992;12.666;2022-12-18T01:58:17;8.67;;;4.90;;
41661;SDS011;27351;45.992;12.666;2022-12-18T02:00:43;9.38;;;5.35;;
41661;SDS011;27351;45.992;12.666;2022-12-18T02:03:09;9.77;;;5.18;;
41661;SDS011;27351;45.992;12.666;2022-12-18T02:10:48;9.02;;;4.97;;
41661;SDS011;27351;45.992;12.666;2022-12-18T02:13:38;9.52;;;5.25;;
41661;SDS011;27351;45.992;12.666;2022-12-18T02:16:13;9.10;;;5.28;;
41661;SDS011;27351;45.992;12.666;2022-12-18T02:18:43;8.48;;;5.05;;
41661;SDS011;27351;45.992;12.666;2022-12-18T02:24:06;8.88;;;5.00;;
41661;SDS011;27351;45.992;12.666;2022-12-18T02:26:37;8.50;;;5.18;;
41661;SDS011;27351;45.992;12.666;2022-12-18T02:29:08;8.73;;;4.60;;
41661;SDS011;27351;45.992;12.666;2022-12-18T02:31:37;8.85;;;4.72;;
41661;SDS011;27351;45.992;12.666;2022-12-18T02:34:05;8.38;;;4.78;;
41661;SDS011;27351;45.992;12.666;2022-12-18T02:36:36;8.38;;;4.80;;
41661;SDS011;27351;45.992;12.666;2022-12-18T02:39:04;8.90;;;5.40;;
41661;SDS011;27351;45.992;12.666;2022-12-18T02:41:31;8.68;;;4.93;;
41661;SDS011;27351;45.992;12.666;2022-12-18T02:44:00;8.32;;;5.15;;
41661;SDS011;27351;45.992;12.666;2022-12-18T02:46:34;8.70;;;4.70;;
41661;SDS011;27351;45.992;12.666;2022-12-18T02:51:37;8.10;;;4.90;;
41661;SDS011;27351;45.992;12.666;2022-12-18T02:54:10;8.60;;;4.68;;
41661;SDS011;27351;45.992;12.666;2022-12-18T02:56:46;8.27;;;4.65;;
41661;SDS011;27351;45.992;12.666;2022-12-18T02:59:21;8.20;;;4.72;;
41661;SDS011;27351;45.992;12.666;2022-12-18T03:04:26;9.07;;;5.30;;
41661;SDS011;27351;45.992;12.666;2022-12-18T03:06:56;8.95;;;5.13;;
41661;SDS011;27351;45.992;12.666;2022-12-18T03:09:34;8.25;;;4.47;;
41661;SDS011;27351;45.992;12.666;2022-12-18T03:12:36;7.85;;;4.55;;
41661;SDS011;27351;45.992;12.666;2022-12-18T03:15:16;9.05;;;4.60;;
41661;SDS011;27351;45.992;12.666;2022-12-18T03:17:49;8.13;;;4.93;;
41661;SDS011;27351;45.992;12.666;2022-12-18T03:20:17;9.18;;;4.78;;
41661;SDS011;27351;45.992;12.666;2022-12-18T03:22:44;10.43;;;4.43;;
41661;SDS011;27351;45.992;12.666;2022-12-18T03:25:13;9.07;;;4.88;;
41661;SDS011;27351;45.992;12.666;2022-12-18T03:27:41;8.73;;;5.17;;
41661;SDS011;27351;45.992;12.666;2022-12-18T03:30:11;7.75;;;5.00;;
41661;SDS011;27351;45.992;12.666;2022-12-18T03:35:13;10.30;;;5.00;;
41661;SDS011;27351;45.992;12.666;2022-12-18T03:37:39;9.60;;;5.45;;
41661;SDS011;27351;45.992;12.666;2022-12-18T03:40:07;7.53;;;4.60;;
41661;SDS011;27351;45.992;12.666;2022-12-18T03:45:09;9.20;;;5.30;;
41661;SDS011;27351;45.992;12.666;2022-12-18T03:47:44;8.87;;;5.37;;
41661;SDS011;27351;45.992;12.666;2022-12-18T03:50:14;8.32;;;5.25;;
41661;SDS011;27351;45.992;12.666;2022-12-18T03:55:11;8.45;;;4.90;;
41661;SDS011;27351;45.992;12.666;2022-12-18T03:57:39;7.63;;;4.80;;
41661;SDS011;27351;45.992;12.666;2022-12-18T04:00:08;8.23;;;4.68;;
41661;SDS011;27351;45.992;12.666;2022-12-18T04:02:52;8.88;;;5.47;;
41661;SDS011;27351;45.992;12.666;2022-12-18T04:05:24;8.00;;;4.70;;
41661;SDS011;27351;45.992;12.666;2022-12-18T04:07:51;7.50;;;4.40;;
41661;SDS011;27351;45.992;12.666;2022-12-18T04:10:20;7.57;;;4.47;;
41661;SDS011;27351;45.992;12.666;2022-12-18T04:12:46;9.35;;;4.70;;
41661;SDS011;27351;45.992;12.666;2022-12-18T04:15:13;7.97;;;4.77;;
41661;SDS011;27351;45.992;12.666;2022-12-18T04:17:39;9.35;;;5.25;;
41661;SDS011;27351;45.992;12.666;2022-12-18T04:20:09;8.48;;;5.00;;
41661;SDS011;27351;45.992;12.666;2022-12-18T04:22:38;9.18;;;4.55;;
41661;SDS011;27351;45.992;12.666;2022-12-18T04:25:04;8.82;;;4.63;;
41661;SDS011;27351;45.992;12.666;2022-12-18T04:27:36;7.18;;;4.18;;
41661;SDS011;27351;45.992;12.666;2022-12-18T04:30:04;8.13;;;4.63;;
41661;SDS011;27351;45.992;12.666;2022-12-18T04:32:29;8.02;;;4.55;;
41661;SDS011;27351;45.992;12.666;2022-12-18T04:34:56;8.18;;;4.88;;
41661;SDS011;27351;45.992;12.666;2022-12-18T04:37:21;7.70;;;4.13;;
41661;SDS011;27351;45.992;12.666;2022-12-18T04:39:48;10.32;;;4.55;;
41661;SDS011;27351;45.992;12.666;2022-12-18T04:42:21;8.18;;;4.97;;
41661;SDS011;27351;45.992;12.666;2022-12-18T04:44:47;8.20;;;4.67;;
41661;SDS011;27351;45.992;12.666;2022-12-18T04:47:12;8.07;;;4.53;;
41661;SDS011;27351;45.992;12.666;2022-12-18T04:49:38;7.63;;;4.10;;
41661;SDS011;27351;45.992;12.666;2022-12-18T04:52:04;7.97;;;4.80;;
41661;SDS011;27351;45.992;12.666;2022-12-18T04:54:29;7.60;;;4.40;;
41661;SDS011;27351;45.992;12.666;2022-12-18T04:56:55;7.87;;;4.63;;
41661;SDS011;27351;45.992;12.666;2022-12-18T04:59:20;7.23;;;4.30;;
41661;SDS011;27351;45.992;12.666;2022-12-18T05:01:45;6.97;;;4.23;;
41661;SDS011;27351;45.992;12.666;2022-12-18T05:04:11;7.47;;;4.33;;
41661;SDS011;27351;45.992;12.666;2022-12-18T05:06:37;7.80;;;4.20;;
41661;SDS011;27351;45.992;12.666;2022-12-18T05:09:02;7.03;;;4.07;;
41661;SDS011;27351;45.992;12.666;2022-12-18T05:11:28;8.87;;;4.83;;
41661;SDS011;27351;45.992;12.666;2022-12-18T05:13:56;8.10;;;4.47;;
41661;SDS011;27351;45.992;12.666;2022-12-18T05:16:22;6.70;;;4.07;;
41661;SDS011;27351;45.992;12.666;2022-12-18T05:18:48;8.67;;;5.00;;
41661;SDS011;27351;45.992;12.666;2022-12-18T05:21:13;7.40;;;4.70;;
41661;SDS011;27351;45.992;12.666;2022-12-18T05:23:39;8.23;;;4.20;;
41661;SDS011;27351;45.992;12.666;2022-12-18T05:26:05;8.10;;;5.03;;
41661;SDS011;27351;45.992;12.666;2022-12-18T05:28:32;7.43;;;4.22;;
41661;SDS011;27351;45.992;12.666;2022-12-18T05:30:59;7.75;;;4.22;;
41661;SDS011;27351;45.992;12.666;2022-12-18T05:33:26;7.80;;;4.43;;
41661;SDS011;27351;45.992;12.666;2022-12-18T05:35:53;7.95;;;4.68;;
41661;SDS011;27351;45.992;12.666;2022-12-18T05:38:19;8.25;;;5.05;;
41661;SDS011;27351;45.992;12.666;2022-12-18T05:40:45;8.45;;;4.55;;
41661;SDS011;27351;45.992;12.666;2022-12-18T05:43:11;7.23;;;4.20;;
41661;SDS011;27351;45.992;12.666;2022-12-18T05:45:37;7.80;;;4.45;;
41661;SDS011;27351;45.992;12.666;2022-12-18T05:48:03;7.05;;;4.43;;
41661;SDS011;27351;45.992;12.666;2022-12-18T05:50:29;8.57;;;4.90;;
41661;SDS011;27351;45.992;12.666;2022-12-18T05:53:00;7.57;;;4.60;;
41661;SDS011;27351;45.992;12.666;2022-12-18T05:55:25;8.45;;;4.90;;
41661;SDS011;27351;45.992;12.666;2022-12-18T05:57:51;7.38;;;4.60;;
41661;SDS011;27351;45.992;12.666;2022-12-18T06:00:16;7.45;;;4.05;;
41661;SDS011;27351;45.992;12.666;2022-12-18T06:02:42;6.82;;;4.28;;
41661;SDS011;27351;45.992;12.666;2022-12-18T06:05:11;7.20;;;3.97;;
41661;SDS011;27351;45.992;12.666;2022-12-18T06:07:37;7.43;;;4.60;;
41661;SDS011;27351;45.992;12.666;2022-12-18T06:10:02;7.90;;;4.90;;
41661;SDS011;27351;45.992;12.666;2022-12-18T06:12:28;6.88;;;4.07;;
41661;SDS011;27351;45.992;12.666;2022-12-18T06:14:53;7.75;;;4.25;;
41661;SDS011;27351;45.992;12.666;2022-12-18T06:17:19;7.67;;;4.63;;
41661;SDS011;27351;45.992;12.666;2022-12-18T06:19:44;7.57;;;4.20;;
41661;SDS011;27351;45.992;12.666;2022-12-18T06:22:10;8.10;;;4.40;;
41661;SDS011;27351;45.992;12.666;2022-12-18T06:24:35;7.73;;;4.30;;
41661;SDS011;27351;45.992;12.666;2022-12-18T06:27:01;8.67;;;4.77;;
41661;SDS011;27351;45.992;12.666;2022-12-18T06:29:27;9.05;;;4.97;;
41661;SDS011;27351;45.992;12.666;2022-12-18T06:31:53;8.17;;;4.63;;
41661;SDS011;27351;45.992;12.666;2022-12-18T06:34:18;8.07;;;4.70;;
41661;SDS011;27351;45.992;12.666;2022-12-18T06:36:44;9.30;;;5.77;;
41661;SDS011;27351;45.992;12.666;2022-12-18T06:39:09;19.60;;;13.37;;
41661;SDS011;27351;45.992;12.666;2022-12-18T06:41:35;10.90;;;5.30;;
41661;SDS011;27351;45.992;12.666;2022-12-18T06:44:00;8.37;;;4.90;;
41661;SDS011;27351;45.992;12.666;2022-12-18T06:46:26;8.97;;;5.90;;
41661;SDS011;27351;45.992;12.666;2022-12-18T06:48:51;9.67;;;5.93;;
41661;SDS011;27351;45.992;12.666;2022-12-18T06:51:18;10.27;;;6.00;;
41661;SDS011;27351;45.992;12.666;2022-12-18T06:53:43;10.15;;;5.55;;
41661;SDS011;27351;45.992;12.666;2022-12-18T06:56:09;9.63;;;4.90;;
41661;SDS011;27351;45.992;12.666;2022-12-18T06:58:34;9.17;;;4.90;;
41661;SDS011;27351;45.992;12.666;2022-12-18T07:01:01;9.00;;;5.37;;
41661;SDS011;27351;45.992;12.666;2022-12-18T07:03:27;9.13;;;5.50;;
41661;SDS011;27351;45.992;12.666;2022-12-18T07:05:52;12.05;;;7.47;;
41661;SDS011;27351;45.992;12.666;2022-12-18T07:08:18;12.43;;;7.25;;
41661;SDS011;27351;45.992;12.666;2022-12-18T07:10:43;10.68;;;7.07;;
41661;SDS011;27351;45.992;12.666;2022-12-18T07:13:09;12.48;;;7.63;;
41661;SDS011;27351;45.992;12.666;2022-12-18T07:15:34;10.23;;;6.28;;
41661;SDS011;27351;45.992;12.666;2022-12-18T07:18:00;11.87;;;7.13;;
41661;SDS011;27351;45.992;12.666;2022-12-18T07:20:25;25.10;;;10.67;;
41661;SDS011;27351;45.992;12.666;2022-12-18T07:22:51;20.10;;;9.93;;
41661;SDS011;27351;45.992;12.666;2022-12-18T07:25:16;12.33;;;6.73;;
41661;SDS011;27351;45.992;12.666;2022-12-18T07:27:42;10.47;;;6.00;;
41661;SDS011;27351;45.992;12.666;2022-12-18T07:30:10;9.40;;;5.45;;
41661;SDS011;27351;45.992;12.666;2022-12-18T07:32:35;9.17;;;4.93;;
41661;SDS011;27351;45.992;12.666;2022-12-18T07:35:01;9.83;;;5.60;;
41661;SDS011;27351;45.992;12.666;2022-12-18T07:37:26;8.93;;;5.33;;
41661;SDS011;27351;45.992;12.666;2022-12-18T07:39:52;8.90;;;4.97;;
41661;SDS011;27351;45.992;12.666;2022-12-18T07:42:18;8.52;;;5.38;;
41661;SDS011;27351;45.992;12.666;2022-12-18T07:44:55;8.95;;;5.20;;
41661;SDS011;27351;45.992;12.666;2022-12-18T07:47:21;11.07;;;6.87;;
41661;SDS011;27351;45.992;12.666;2022-12-18T07:49:47;9.37;;;5.90;;
41661;SDS011;27351;45.992;12.666;2022-12-18T07:52:12;13.73;;;7.20;;
41661;SDS011;27351;45.992;12.666;2022-12-18T07:54:38;12.00;;;6.87;;
41661;SDS011;27351;45.992;12.666;2022-12-18T07:57:04;12.20;;;7.07;;
41661;SDS011;27351;45.992;12.666;2022-12-18T07:59:29;12.10;;;6.60;;
41661;SDS011;27351;45.992;12.666;2022-12-18T08:01:55;8.73;;;5.13;;
41661;SDS011;27351;45.992;12.666;2022-12-18T08:04:20;8.90;;;5.28;;
41661;SDS011;27351;45.992;12.666;2022-12-18T08:06:46;11.43;;;6.75;;
41661;SDS011;27351;45.992;12.666;2022-12-18T08:09:12;10.50;;;7.13;;
41661;SDS011;27351;45.992;12.666;2022-12-18T08:11:37;12.27;;;8.03;;
41661;SDS011;27351;45.992;12.666;2022-12-18T08:14:03;12.67;;;8.60;;
41661;SDS011;27351;45.992;12.666;2022-12-18T08:16:28;10.00;;;6.50;;
41661;SDS011;27351;45.992;12.666;2022-12-18T08:18:56;11.80;;;6.80;;
41661;SDS011;27351;45.992;12.666;2022-12-18T08:21:23;10.37;;;5.40;;
41661;SDS011;27351;45.992;12.666;2022-12-18T08:23:50;8.47;;;4.83;;
41661;SDS011;27351;45.992;12.666;2022-12-18T08:26:16;8.52;;;4.95;;
41661;SDS011;27351;45.992;12.666;2022-12-18T08:28:41;8.43;;;5.13;;
41661;SDS011;27351;45.992;12.666;2022-12-18T08:31:07;8.63;;;5.05;;
41661;SDS011;27351;45.992;12.666;2022-12-18T08:33:34;8.38;;;5.20;;
41661;SDS011;27351;45.992;12.666;2022-12-18T08:35:59;9.15;;;5.32;;
41661;SDS011;27351;45.992;12.666;2022-12-18T08:38:25;8.35;;;4.70;;
41661;SDS011;27351;45.992;12.666;2022-12-18T08:41:07;7.73;;;4.50;;
41661;SDS011;27351;45.992;12.666;2022-12-18T08:43:34;7.60;;;4.27;;
41661;SDS011;27351;45.992;12.666;2022-12-18T08:46:18;6.55;;;3.95;;
41661;SDS011;27351;45.992;12.666;2022-12-18T08:48:44;7.28;;;4.07;;
41661;SDS011;27351;45.992;12.666;2022-12-18T08:51:09;7.63;;;3.97;;
41661;SDS011;27351;45.992;12.666;2022-12-18T08:53:35;6.35;;;3.90;;
41661;SDS011;27351;45.992;12.666;2022-12-18T08:56:01;6.55;;;3.60;;
41661;SDS011;27351;45.992;12.666;2022-12-18T08:58:27;6.40;;;3.33;;
41661;SDS011;27351;45.992;12.666;2022-12-18T09:00:52;7.13;;;3.80;;
41661;SDS011;27351;45.992;12.666;2022-12-18T09:03:21;5.85;;;3.15;;
41661;SDS011;27351;45.992;12.666;2022-12-18T09:05:48;7.07;;;3.60;;
41661;SDS011;27351;45.992;12.666;2022-12-18T09:08:13;6.25;;;3.42;;
41661;SDS011;27351;45.992;12.666;2022-12-18T09:10:48;6.00;;;3.42;;
41661;SDS011;27351;45.992;12.666;2022-12-18T09:13:14;6.80;;;3.38;;
41661;SDS011;27351;45.992;12.666;2022-12-18T09:15:41;5.53;;;3.17;;
41661;SDS011;27351;45.992;12.666;2022-12-18T09:18:07;5.60;;;3.05;;
41661;SDS011;27351;45.992;12.666;2022-12-18T09:20:32;5.80;;;3.20;;
41661;SDS011;27351;45.992;12.666;2022-12-18T09:22:58;5.17;;;3.20;;
41661;SDS011;27351;45.992;12.666;2022-12-18T09:25:23;6.07;;;3.60;;
41661;SDS011;27351;45.992;12.666;2022-12-18T09:27:49;5.50;;;3.10;;
41661;SDS011;27351;45.992;12.666;2022-12-18T09:30:15;5.67;;;3.13;;
41661;SDS011;27351;45.992;12.666;2022-12-18T09:32:40;6.07;;;3.20;;
41661;SDS011;27351;45.992;12.666;2022-12-18T09:35:06;6.03;;;3.30;;
41661;SDS011;27351;45.992;12.666;2022-12-18T09:37:32;6.40;;;3.50;;
41661;SDS011;27351;45.992;12.666;2022-12-18T09:39:57;6.33;;;3.27;;
41661;SDS011;27351;45.992;12.666;2022-12-18T09:42:23;6.40;;;3.20;;
41661;SDS011;27351;45.992;12.666;2022-12-18T09:44:54;6.53;;;3.63;;
41661;SDS011;27351;45.992;12.666;2022-12-18T09:50:37;7.37;;;3.40;;
41661;SDS011;27351;45.992;12.666;2022-12-18T09:53:17;6.82;;;3.53;;
41661;SDS011;27351;45.992;12.666;2022-12-18T09:55:45;7.47;;;4.00;;
41661;SDS011;27351;45.992;12.666;2022-12-18T10:01:02;6.85;;;4.10;;
41661;SDS011;27351;45.992;12.666;2022-12-18T10:03:49;8.20;;;4.30;;
41661;SDS011;27351;45.992;12.666;2022-12-18T10:06:17;8.00;;;4.38;;
41661;SDS011;27351;45.992;12.666;2022-12-18T10:16:36;7.15;;;4.32;;
41661;SDS011;27351;45.992;12.666;2022-12-18T10:19:09;8.48;;;4.75;;
41661;SDS011;27351;45.992;12.666;2022-12-18T10:24:23;8.05;;;4.47;;
41661;SDS011;27351;45.992;12.666;2022-12-18T10:26:49;8.32;;;4.40;;
41661;SDS011;27351;45.992;12.666;2022-12-18T10:29:16;10.15;;;4.80;;
41661;SDS011;27351;45.992;12.666;2022-12-18T10:31:42;8.30;;;3.97;;
41661;SDS011;27351;45.992;12.666;2022-12-18T10:34:11;10.85;;;4.57;;
41661;SDS011;27351;45.992;12.666;2022-12-18T10:36:37;8.38;;;4.03;;
41661;SDS011;27351;45.992;12.666;2022-12-18T10:39:19;7.90;;;3.93;;
41661;SDS011;27351;45.992;12.666;2022-12-18T10:41:47;7.60;;;4.22;;
41661;SDS011;27351;45.992;12.666;2022-12-18T10:44:20;7.60;;;4.47;;
41661;SDS011;27351;45.992;12.666;2022-12-18T10:46:55;8.82;;;4.45;;
41661;SDS011;27351;45.992;12.666;2022-12-18T10:49:29;8.10;;;3.97;;
41661;SDS011;27351;45.992;12.666;2022-12-18T10:54:38;7.90;;;4.38;;
41661;SDS011;27351;45.992;12.666;2022-12-18T10:57:17;7.90;;;4.23;;
41661;SDS011;27351;45.992;12.666;2022-12-18T10:59:52;7.90;;;4.60;;
41661;SDS011;27351;45.992;12.666;2022-12-18T11:02:26;7.13;;;3.85;;
41661;SDS011;27351;45.992;12.666;2022-12-18T11:04:52;8.98;;;4.20;;
41661;SDS011;27351;45.992;12.666;2022-12-18T11:07:18;8.10;;;4.43;;
41661;SDS011;27351;45.992;12.666;2022-12-18T11:09:43;8.70;;;4.68;;
41661;SDS011;27351;45.992;12.666;2022-12-18T11:12:27;7.50;;;4.20;;
41661;SDS011;27351;45.992;12.666;2022-12-18T11:14:54;8.48;;;4.53;;
41661;SDS011;27351;45.992;12.666;2022-12-18T11:17:34;7.35;;;4.00;;
41661;SDS011;27351;45.992;12.666;2022-12-18T11:20:01;9.43;;;4.47;;
41661;SDS011;27351;45.992;12.666;2022-12-18T11:22:29;8.00;;;4.15;;
41661;SDS011;27351;45.992;12.666;2022-12-18T11:25:02;7.70;;;3.90;;
41661;SDS011;27351;45.992;12.666;2022-12-18T11:27:30;7.72;;;3.97;;
41661;SDS011;27351;45.992;12.666;2022-12-18T11:33:11;7.53;;;4.18;;
41661;SDS011;27351;45.992;12.666;2022-12-18T11:38:10;7.30;;;4.00;;
41661;SDS011;27351;45.992;12.666;2022-12-18T11:40:38;8.05;;;4.20;;
41661;SDS011;27351;45.992;12.666;2022-12-18T11:45:50;7.47;;;3.87;;
41661;SDS011;27351;45.992;12.666;2022-12-18T11:48:22;6.72;;;3.72;;
41661;SDS011;27351;45.992;12.666;2022-12-18T11:53:13;7.72;;;3.83;;
41661;SDS011;27351;45.992;12.666;2022-12-18T11:55:47;7.10;;;3.72;;
41661;SDS011;27351;45.992;12.666;2022-12-18T12:11:24;8.88;;;4.45;;
41661;SDS011;27351;45.992;12.666;2022-12-18T12:14:07;7.40;;;4.03;;
41661;SDS011;27351;45.992;12.666;2022-12-18T12:16:37;8.30;;;4.20;;
41661;SDS011;27351;45.992;12.666;2022-12-18T12:19:14;7.40;;;4.37;;
41661;SDS011;27351;45.992;12.666;2022-12-18T12:21:50;7.05;;;4.05;;
41661;SDS011;27351;45.992;12.666;2022-12-18T12:26:45;8.50;;;4.50;;
41661;SDS011;27351;45.992;12.666;2022-12-18T12:29:21;7.53;;;4.30;;
41661;SDS011;27351;45.992;12.666;2022-12-18T12:39:29;10.00;;;4.33;;
41661;SDS011;27351;45.992;12.666;2022-12-18T12:41:55;7.60;;;3.92;;
41661;SDS011;27351;45.992;12.666;2022-12-18T12:44:42;9.45;;;4.30;;
41661;SDS011;27351;45.992;12.666;2022-12-18T12:47:15;8.30;;;4.35;;
41661;SDS011;27351;45.992;12.666;2022-12-18T12:49:42;8.20;;;4.75;;
41661;SDS011;27351;45.992;12.666;2022-12-18T12:52:35;9.05;;;4.28;;
41661;SDS011;27351;45.992;12.666;2022-12-18T12:54:58;8.52;;;4.38;;
41661;SDS011;27351;45.992;12.666;2022-12-18T13:00:00;9.07;;;4.80;;
41661;SDS011;27351;45.992;12.666;2022-12-18T13:05:00;8.30;;;4.60;;
41661;SDS011;27351;45.992;12.666;2022-12-18T13:07:41;8.93;;;4.95;;
41661;SDS011;27351;45.992;12.666;2022-12-18T13:12:54;9.30;;;4.90;;
41661;SDS011;27351;45.992;12.666;2022-12-18T13:17:49;8.70;;;4.82;;
41661;SDS011;27351;45.992;12.666;2022-12-18T13:20:32;9.30;;;5.05;;
41661;SDS011;27351;45.992;12.666;2022-12-18T13:22:58;9.50;;;5.20;;
41661;SDS011;27351;45.992;12.666;2022-12-18T13:27:57;8.90;;;5.22;;
41661;SDS011;27351;45.992;12.666;2022-12-18T13:38:32;9.70;;;5.10;;
41661;SDS011;27351;45.992;12.666;2022-12-18T13:41:03;9.00;;;5.00;;
41661;SDS011;27351;45.992;12.666;2022-12-18T13:43:30;10.35;;;5.82;;
41661;SDS011;27351;45.992;12.666;2022-12-18T13:48:40;8.48;;;4.57;;
41661;SDS011;27351;45.992;12.666;2022-12-18T13:51:15;9.27;;;5.07;;
41661;SDS011;27351;45.992;12.666;2022-12-18T13:53:44;9.75;;;5.10;;
41661;SDS011;27351;45.992;12.666;2022-12-18T13:56:16;9.98;;;5.18;;
41661;SDS011;27351;45.992;12.666;2022-12-18T13:58:42;9.20;;;5.28;;
41661;SDS011;27351;45.992;12.666;2022-12-18T14:01:23;8.23;;;5.05;;
41661;SDS011;27351;45.992;12.666;2022-12-18T14:04:07;10.13;;;5.45;;
41661;SDS011;27351;45.992;12.666;2022-12-18T14:06:34;8.60;;;4.83;;
41661;SDS011;27351;45.992;12.666;2022-12-18T14:08:59;8.77;;;4.90;;
41661;SDS011;27351;45.992;12.666;2022-12-18T14:11:25;8.63;;;5.22;;
41661;SDS011;27351;45.992;12.666;2022-12-18T14:13:51;8.82;;;5.20;;
41661;SDS011;27351;45.992;12.666;2022-12-18T14:16:17;10.18;;;5.35;;
41661;SDS011;27351;45.992;12.666;2022-12-18T14:18:44;9.55;;;5.28;;
41661;SDS011;27351;45.992;12.666;2022-12-18T14:21:29;8.65;;;4.93;;
41661;SDS011;27351;45.992;12.666;2022-12-18T14:24:17;9.88;;;5.47;;
41661;SDS011;27351;45.992;12.666;2022-12-18T14:26:43;9.73;;;5.60;;
41661;SDS011;27351;45.992;12.666;2022-12-18T14:31:43;9.88;;;5.15;;
41661;SDS011;27351;45.992;12.666;2022-12-18T14:34:15;9.90;;;5.03;;
41661;SDS011;27351;45.992;12.666;2022-12-18T14:36:41;8.30;;;4.60;;
41661;SDS011;27351;45.992;12.666;2022-12-18T14:39:13;9.18;;;5.32;;
41661;SDS011;27351;45.992;12.666;2022-12-18T14:41:41;8.70;;;4.80;;
41661;SDS011;27351;45.992;12.666;2022-12-18T14:44:07;8.60;;;4.87;;
41661;SDS011;27351;45.992;12.666;2022-12-18T14:46:36;9.00;;;5.15;;
41661;SDS011;27351;45.992;12.666;2022-12-18T14:49:04;9.37;;;5.20;;
41661;SDS011;27351;45.992;12.666;2022-12-18T14:51:31;8.10;;;4.57;;
41661;SDS011;27351;45.992;12.666;2022-12-18T14:53:57;8.60;;;4.83;;
41661;SDS011;27351;45.992;12.666;2022-12-18T14:56:27;11.02;;;5.78;;
41661;SDS011;27351;45.992;12.666;2022-12-18T14:58:55;10.85;;;6.10;;
41661;SDS011;27351;45.992;12.666;2022-12-18T15:03:53;11.55;;;6.75;;
41661;SDS011;27351;45.992;12.666;2022-12-18T15:06:52;12.90;;;7.07;;
41661;SDS011;27351;45.992;12.666;2022-12-18T15:09:24;13.55;;;6.88;;
41661;SDS011;27351;45.992;12.666;2022-12-18T15:11:54;11.60;;;6.47;;
41661;SDS011;27351;45.992;12.666;2022-12-18T15:14:24;21.63;;;9.52;;
41661;SDS011;27351;45.992;12.666;2022-12-18T15:16:56;14.90;;;8.13;;
41661;SDS011;27351;45.992;12.666;2022-12-18T15:19:22;17.02;;;8.65;;
41661;SDS011;27351;45.992;12.666;2022-12-18T15:21:51;12.73;;;7.03;;
41661;SDS011;27351;45.992;12.666;2022-12-18T15:24:17;14.43;;;7.57;;
41661;SDS011;27351;45.992;12.666;2022-12-18T15:26:43;17.50;;;8.40;;
41661;SDS011;27351;45.992;12.666;2022-12-18T15:29:17;14.00;;;7.47;;
41661;SDS011;27351;45.992;12.666;2022-12-18T15:31:44;12.48;;;6.85;;
41661;SDS011;27351;45.992;12.666;2022-12-18T15:34:18;11.32;;;6.07;;
41661;SDS011;27351;45.992;12.666;2022-12-18T15:36:45;11.48;;;6.13;;
41661;SDS011;27351;45.992;12.666;2022-12-18T15:39:12;13.47;;;6.53;;
41661;SDS011;27351;45.992;12.666;2022-12-18T15:41:38;10.82;;;6.45;;
41661;SDS011;27351;45.992;12.666;2022-12-18T15:44:18;12.88;;;6.95;;
41661;SDS011;27351;45.992;12.666;2022-12-18T15:46:46;12.80;;;7.55;;
41661;SDS011;27351;45.992;12.666;2022-12-18T15:49:12;13.10;;;7.77;;
41661;SDS011;27351;45.992;12.666;2022-12-18T15:51:37;17.00;;;9.73;;
41661;SDS011;27351;45.992;12.666;2022-12-18T15:54:04;18.10;;;10.43;;
41661;SDS011;27351;45.992;12.666;2022-12-18T15:56:31;14.18;;;9.27;;
41661;SDS011;27351;45.992;12.666;2022-12-18T15:59:18;13.32;;;8.00;;
41661;SDS011;27351;45.992;12.666;2022-12-18T16:01:48;15.25;;;8.95;;
41661;SDS011;27351;45.992;12.666;2022-12-18T16:04:15;18.27;;;11.87;;
41661;SDS011;27351;45.992;12.666;2022-12-18T16:06:41;22.27;;;15.20;;
41661;SDS011;27351;45.992;12.666;2022-12-18T16:09:07;18.63;;;11.98;;
41661;SDS011;27351;45.992;12.666;2022-12-18T16:11:33;20.85;;;13.02;;
41661;SDS011;27351;45.992;12.666;2022-12-18T16:14:08;16.43;;;9.67;;
41661;SDS011;27351;45.992;12.666;2022-12-18T16:16:37;16.45;;;9.25;;
41661;SDS011;27351;45.992;12.666;2022-12-18T16:19:03;17.02;;;9.40;;
41661;SDS011;27351;45.992;12.666;2022-12-18T16:21:28;16.60;;;10.10;;
41661;SDS011;27351;45.992;12.666;2022-12-18T16:23:54;15.30;;;10.02;;